Tescott, Kansas
Current Conditions -  °F | °C
As of 9:53 AM on Sunday 25 Jan 2015 (Local Time) from KSLN Reporting Station
Overcast Overcast  
Wind Chill: 37°   Ceiling: 3700
Heat Index: 46°   Visibility: 10mi
Dew Point: 30°   Wind: 26mph
Humidity: 54%   Direction: 330°NNW
Pressure: 29.95"   Gusts: 36mph
Location:  39.01°N, 97.88°W
Report Text: KSLN 251553Z 33023G31KT 10SM BKN037 OVC055 08/M01 A2995 RMK AO2 PK WND 33035/1536 SLP143 T00781011
Loading
Personal Weather Stations






























Interactive Weather Map New forecast layout! Learn more

10-Day Weather Forecast

Advertisements
Track Severe Weather on mobile